createdAt,value
2018-11-06T00:01:13.364Z,9.57
2018-11-06T00:04:04.061Z,9.64
2018-11-06T00:06:37.259Z,9.66
2018-11-06T00:09:14.049Z,9.67
2018-11-06T00:11:48.058Z,9.66
2018-11-06T00:14:22.468Z,9.64
2018-11-06T00:16:56.776Z,9.58
2018-11-06T00:19:27.840Z,9.60
2018-11-06T00:22:01.577Z,9.58
2018-11-06T00:24:34.920Z,9.65
2018-11-06T00:27:08.940Z,9.66
2018-11-06T00:29:40.392Z,9.67
2018-11-06T00:32:14.973Z,9.66
2018-11-06T00:34:48.579Z,9.62
2018-11-06T00:37:22.947Z,9.61
2018-11-06T00:39:56.696Z,9.63
2018-11-06T00:42:30.479Z,9.61
2018-11-06T00:45:05.045Z,9.52
2018-11-06T00:47:39.037Z,9.54
2018-11-06T00:50:14.302Z,9.57
2018-11-06T00:52:47.967Z,9.65
2018-11-06T00:55:21.915Z,9.68
2018-11-06T00:57:56.591Z,9.71
2018-11-06T01:00:32.126Z,9.69
2018-11-06T01:03:05.522Z,9.63
2018-11-06T01:05:40.938Z,9.57
2018-11-06T01:08:14.902Z,9.55
2018-11-06T01:10:49.660Z,9.56
2018-11-06T01:13:23.458Z,9.59
2018-11-06T01:15:57.040Z,9.60
2018-11-06T01:18:33.618Z,9.61
2018-11-06T01:21:07.897Z,9.61
2018-11-06T01:23:44.187Z,9.58
2018-11-06T01:26:18.266Z,9.57
2018-11-06T01:28:52.650Z,9.57
2018-11-06T01:31:27.048Z,9.61
2018-11-06T01:34:00.740Z,9.57
2018-11-06T01:36:34.604Z,9.48
2018-11-06T01:39:13.211Z,9.44
2018-11-06T01:41:47.361Z,9.36
2018-11-06T01:46:54.472Z,9.31
2018-11-06T01:49:27.749Z,9.32
2018-11-06T01:52:01.609Z,9.28
2018-11-06T01:54:35.130Z,9.26
2018-11-06T01:57:08.231Z,9.18
2018-11-06T01:59:41.980Z,9.16
2018-11-06T02:02:16.273Z,9.11
2018-11-06T02:04:50.214Z,9.07
2018-11-06T02:07:25.415Z,9.07
2018-11-06T02:09:58.506Z,9.07
2018-11-06T02:12:32.257Z,8.93
2018-11-06T02:15:06.120Z,8.90
2018-11-06T02:17:41.210Z,8.88
2018-11-06T02:20:15.348Z,8.82
2018-11-06T02:22:49.113Z,8.74
2018-11-06T02:25:22.297Z,8.76
2018-11-06T02:27:56.178Z,8.75
2018-11-06T02:30:30.318Z,8.76
2018-11-06T02:33:02.539Z,8.74
2018-11-06T02:35:37.601Z,8.64
2018-11-06T02:38:11.240Z,8.64
2018-11-06T02:40:44.773Z,8.58
2018-11-06T02:43:16.661Z,8.58
2018-11-06T02:45:50.880Z,8.58
2018-11-06T02:48:23.649Z,8.58
2018-11-06T02:50:57.996Z,8.58
2018-11-06T02:53:35.564Z,8.54
2018-11-06T02:56:10.452Z,8.47
2018-11-06T02:58:44.984Z,8.44
2018-11-06T03:01:18.853Z,8.37
2018-11-06T03:03:52.490Z,8.26
2018-11-06T03:06:26.477Z,8.23
2018-11-06T03:09:00.252Z,8.13
2018-11-06T03:11:36.974Z,8.23
2018-11-06T03:14:09.934Z,8.25
2018-11-06T03:16:43.059Z,8.23
2018-11-06T03:19:14.308Z,8.23
2018-11-06T03:21:47.906Z,8.28
2018-11-06T03:24:22.738Z,8.25
2018-11-06T03:26:56.507Z,8.20
2018-11-06T03:29:29.950Z,8.19
2018-11-06T03:32:03.953Z,8.20
2018-11-06T03:34:37.043Z,8.22
2018-11-06T03:37:10.843Z,8.16
2018-11-06T03:39:45.035Z,8.12
2018-11-06T03:42:18.316Z,8.10
2018-11-06T03:44:51.986Z,8.09
2018-11-06T03:47:25.574Z,8.17
2018-11-06T03:49:59.342Z,8.14
2018-11-06T03:52:33.338Z,8.10
2018-11-06T03:55:07.541Z,8.07
2018-11-06T03:57:41.293Z,8.12
2018-11-06T04:00:18.932Z,8.15
2018-11-06T04:02:50.327Z,8.10
2018-11-06T04:05:22.259Z,8.06
2018-11-06T04:07:53.686Z,8.04
2018-11-06T04:10:24.730Z,8.02
2018-11-06T04:12:55.782Z,7.96
2018-11-06T04:15:26.954Z,7.84
2018-11-06T04:17:58.405Z,7.80
2018-11-06T04:20:29.783Z,7.73
2018-11-06T04:23:00.868Z,7.66
2018-11-06T04:25:31.931Z,7.63
2018-11-06T04:28:03.782Z,7.50
2018-11-06T04:30:34.905Z,7.50
2018-11-06T04:33:05.922Z,7.51
2018-11-06T04:35:37.303Z,7.54
2018-11-06T04:38:08.435Z,7.62
2018-11-06T04:40:39.657Z,7.65
2018-11-06T04:43:10.687Z,7.59
2018-11-06T04:45:41.750Z,7.56
2018-11-06T04:48:12.817Z,7.57
2018-11-06T04:50:44.295Z,7.61
2018-11-06T04:53:15.348Z,7.62
2018-11-06T04:55:46.404Z,7.61
2018-11-06T04:58:17.750Z,7.55
2018-11-06T05:00:49.120Z,7.54
2018-11-06T05:03:20.171Z,7.53
2018-11-06T05:05:51.657Z,7.55
2018-11-06T05:08:23.272Z,7.52
2018-11-06T05:10:54.358Z,7.54
2018-11-06T05:13:25.424Z,7.55
2018-11-06T05:15:56.521Z,7.56
2018-11-06T05:18:27.742Z,7.56
2018-11-06T05:20:58.881Z,7.44
2018-11-06T05:23:31.189Z,7.37
2018-11-06T05:26:02.292Z,7.28
2018-11-06T05:28:33.382Z,7.29
2018-11-06T05:31:04.961Z,7.31
2018-11-06T05:33:35.994Z,7.35
2018-11-06T05:36:07.292Z,7.40
2018-11-06T05:38:38.624Z,7.50
2018-11-06T05:41:10.139Z,7.51
2018-11-06T05:43:41.179Z,7.57
2018-11-06T05:46:12.262Z,7.61
2018-11-06T05:48:43.348Z,7.61
2018-11-06T05:51:14.551Z,7.63
2018-11-06T05:53:47.842Z,7.65
2018-11-06T05:56:18.887Z,7.65
2018-11-06T05:58:50.258Z,7.66
2018-11-06T06:01:22.241Z,7.68
2018-11-06T06:03:53.540Z,7.67
2018-11-06T06:06:24.533Z,7.66
2018-11-06T06:08:57.863Z,7.65
2018-11-06T06:11:29.202Z,7.63
2018-11-06T06:14:00.197Z,7.63
2018-11-06T06:16:32.335Z,7.68
2018-11-06T06:19:03.362Z,7.71
2018-11-06T06:21:34.530Z,7.70
2018-11-06T06:24:06.185Z,7.74
2018-11-06T06:26:37.431Z,7.75
2018-11-06T06:29:08.612Z,7.75
2018-11-06T06:31:39.761Z,7.72
2018-11-06T06:34:10.897Z,7.72
2018-11-06T06:36:41.944Z,7.74
2018-11-06T06:39:13.035Z,7.72
2018-11-06T06:41:44.083Z,7.69
2018-11-06T06:44:15.370Z,7.68
2018-11-06T06:46:46.459Z,7.71
2018-11-06T06:49:17.814Z,7.76
2018-11-06T06:51:49.326Z,7.76
2018-11-06T06:54:20.566Z,7.74
2018-11-06T06:56:51.552Z,7.66
2018-11-06T06:59:23.660Z,7.67
2018-11-06T07:01:54.641Z,7.67
2018-11-06T07:04:28.200Z,7.69
2018-11-06T07:07:01.624Z,7.79
2018-11-06T07:09:35.542Z,7.83
2018-11-06T07:12:07.993Z,7.89
2018-11-06T07:14:41.506Z,7.90
2018-11-06T07:17:16.072Z,7.86
2018-11-06T07:19:47.099Z,7.92
2018-11-06T07:22:21.611Z,7.99
2018-11-06T07:24:56.109Z,8.02
2018-11-06T07:27:33.715Z,8.08
2018-11-06T07:30:08.853Z,8.08
2018-11-06T07:32:42.764Z,8.12
2018-11-06T07:35:26.435Z,8.16
2018-11-06T07:38:22.064Z,8.22
2018-11-06T07:41:08.395Z,8.30
2018-11-06T07:43:44.258Z,8.34
2018-11-06T07:46:17.863Z,8.33
2018-11-06T07:48:51.998Z,8.30
2018-11-06T07:51:27.263Z,8.35
2018-11-06T07:54:01.071Z,8.41
2018-11-06T07:56:34.501Z,8.49
2018-11-06T07:59:09.066Z,8.54
2018-11-06T08:01:42.533Z,8.60
2018-11-06T08:04:16.747Z,8.61
2018-11-06T08:06:50.722Z,8.63
2018-11-06T08:09:24.078Z,8.65
2018-11-06T08:11:58.384Z,8.73
2018-11-06T08:14:33.295Z,8.79
2018-11-06T08:17:07.106Z,8.88
2018-11-06T08:19:43.895Z,9.03
2018-11-06T08:22:19.162Z,9.14
2018-11-06T08:24:59.262Z,9.24
2018-11-06T08:27:33.304Z,9.32
2018-11-06T08:30:07.996Z,9.40
2018-11-06T08:32:41.693Z,9.49
2018-11-06T08:35:19.533Z,9.59
2018-11-06T08:37:56.891Z,9.71
2018-11-06T08:40:31.440Z,9.81
2018-11-06T08:43:07.441Z,9.89
2018-11-06T08:45:42.479Z,10.01
2018-11-06T08:48:16.892Z,10.11
2018-11-06T08:50:52.520Z,10.28
2018-11-06T08:53:26.747Z,10.44
2018-11-06T08:55:58.179Z,10.60
2018-11-06T08:58:29.299Z,10.75
2018-11-06T09:01:00.360Z,10.88
2018-11-06T09:03:31.755Z,10.99
2018-11-06T09:06:02.835Z,11.08
2018-11-06T09:08:34.038Z,11.16
2018-11-06T09:11:05.406Z,11.20
2018-11-06T09:13:36.459Z,11.30
2018-11-06T09:16:08.088Z,11.40
2018-11-06T09:18:39.694Z,11.47
2018-11-06T09:21:11.168Z,11.57
2018-11-06T09:23:46.701Z,11.70
2018-11-06T09:26:20.329Z,11.82
2018-11-06T09:28:51.695Z,11.94
2018-11-06T09:31:26.694Z,12.02
2018-11-06T09:33:58.068Z,12.11
2018-11-06T09:36:29.680Z,12.24
2018-11-06T09:39:00.773Z,12.41
2018-11-06T09:41:32.557Z,12.42
2018-11-06T09:44:03.827Z,12.55
2018-11-06T09:46:35.153Z,12.56
2018-11-06T09:49:14.361Z,12.59
2018-11-06T09:51:43.378Z,12.62
2018-11-06T09:54:20.820Z,12.68
2018-11-06T09:56:51.821Z,12.69
2018-11-06T09:59:26.568Z,12.72
2018-11-06T10:01:57.747Z,12.76
2018-11-06T10:04:29.046Z,12.78
2018-11-06T10:07:00.542Z,12.84
2018-11-06T10:09:31.246Z,12.90
2018-11-06T10:12:04.792Z,12.94
2018-11-06T10:14:36.291Z,12.96
2018-11-06T10:17:07.570Z,13.01
2018-11-06T10:19:38.992Z,13.05
2018-11-06T10:22:10.104Z,13.07
2018-11-06T10:24:41.212Z,13.13
2018-11-06T10:27:12.705Z,13.16
2018-11-06T10:29:44.065Z,13.23
2018-11-06T10:32:15.132Z,13.32
2018-11-06T10:34:46.215Z,13.43
2018-11-06T10:37:17.756Z,13.51
2018-11-06T10:39:49.008Z,13.70
2018-11-06T10:42:21.297Z,13.84
2018-11-06T10:44:52.836Z,13.90
2018-11-06T10:47:24.267Z,13.95
2018-11-06T10:49:55.366Z,13.99
2018-11-06T10:52:26.631Z,14.06
2018-11-06T10:54:57.814Z,14.10
2018-11-06T10:57:28.959Z,14.15
2018-11-06T11:00:00.397Z,14.26
2018-11-06T11:02:49.390Z,14.33
2018-11-06T11:05:21.445Z,14.42
2018-11-06T11:07:52.509Z,14.47
2018-11-06T11:10:24.382Z,14.51
2018-11-06T11:12:55.450Z,14.61
2018-11-06T11:15:30.237Z,14.66
2018-11-06T11:18:01.752Z,14.69
2018-11-06T11:20:33.084Z,14.75
2018-11-06T11:23:04.337Z,14.76
2018-11-06T11:25:36.105Z,14.75
2018-11-06T11:28:07.375Z,14.79
2018-11-06T11:30:38.423Z,14.81
2018-11-06T11:33:09.928Z,14.86
2018-11-06T11:35:41.152Z,14.91
2018-11-06T11:38:12.649Z,14.94
2018-11-06T11:40:44.211Z,15.02
2018-11-06T11:43:15.285Z,15.06
2018-11-06T11:45:46.375Z,15.14
2018-11-06T11:48:19.699Z,15.20
2018-11-06T11:50:50.802Z,15.23
2018-11-06T11:53:22.251Z,15.27
2018-11-06T11:55:53.343Z,15.35
2018-11-06T11:58:26.144Z,15.41
2018-11-06T12:00:58.097Z,15.47
2018-11-06T12:03:29.772Z,15.53
2018-11-06T12:06:01.761Z,15.53
2018-11-06T12:08:33.860Z,15.58
2018-11-06T12:11:09.694Z,15.61
2018-11-06T12:13:41.118Z,15.66
2018-11-06T12:16:12.531Z,15.71
2018-11-06T12:18:43.853Z,15.71
2018-11-06T12:21:19.279Z,15.75
2018-11-06T12:23:51.084Z,15.79
2018-11-06T12:26:23.527Z,15.81
2018-11-06T12:28:55.786Z,15.85
2018-11-06T12:31:28.297Z,15.88
2018-11-06T12:34:02.494Z,16.00
2018-11-06T12:36:38.982Z,16.08
2018-11-06T12:39:11.724Z,16.05
2018-11-06T12:41:45.111Z,16.11
2018-11-06T12:44:18.493Z,16.14
2018-11-06T12:46:49.595Z,16.20
2018-11-06T12:49:20.698Z,16.24
2018-11-06T12:51:52.214Z,16.26
2018-11-06T12:54:23.341Z,16.27
2018-11-06T12:56:56.291Z,16.31
2018-11-06T12:59:32.261Z,16.35
2018-11-06T13:02:03.685Z,16.39
2018-11-06T13:04:34.866Z,16.42
2018-11-06T13:07:09.546Z,16.43
2018-11-06T13:09:40.511Z,16.45
2018-11-06T13:12:11.607Z,16.50
2018-11-06T13:14:44.044Z,16.51
2018-11-06T13:17:16.670Z,16.60
2018-11-06T13:19:47.780Z,16.61
2018-11-06T13:22:25.892Z,16.61
2018-11-06T13:24:56.957Z,16.61
2018-11-06T13:27:34.255Z,16.66
2018-11-06T13:30:07.207Z,16.67
2018-11-06T13:32:43.925Z,16.72
2018-11-06T13:35:16.298Z,16.70
2018-11-06T13:37:48.163Z,16.72
2018-11-06T13:40:21.029Z,16.74
2018-11-06T13:42:53.914Z,16.76
2018-11-06T13:45:26.683Z,16.73
2018-11-06T13:47:59.031Z,16.69
2018-11-06T13:50:30.925Z,16.71
2018-11-06T13:53:10.565Z,16.69
2018-11-06T13:55:45.022Z,16.74
2018-11-06T13:58:18.895Z,16.79
2018-11-06T14:00:51.501Z,16.79
2018-11-06T14:03:28.762Z,16.80
2018-11-06T14:06:02.333Z,16.80
2018-11-06T14:08:34.099Z,16.80
2018-11-06T14:11:05.851Z,16.80
2018-11-06T14:13:36.935Z,16.80
2018-11-06T14:16:08.629Z,16.80
2018-11-06T14:18:40.435Z,16.81
2018-11-06T14:21:11.610Z,16.85
2018-11-06T14:23:42.789Z,16.86
2018-11-06T14:26:18.614Z,16.84
2018-11-06T14:28:49.703Z,16.84
2018-11-06T14:31:23.432Z,16.84
2018-11-06T14:33:54.594Z,16.82
2018-11-06T14:36:28.255Z,16.83
2018-11-06T14:38:59.328Z,16.81
2018-11-06T14:41:36.814Z,16.77
2018-11-06T14:44:08.413Z,16.77
2018-11-06T14:46:39.883Z,16.78
2018-11-06T14:49:10.985Z,16.74
2018-11-06T14:51:42.014Z,16.74
2018-11-06T14:54:13.074Z,16.70
2018-11-06T14:56:45.953Z,16.70
2018-11-06T14:59:19.083Z,16.66
2018-11-06T15:01:51.254Z,16.65
2018-11-06T15:04:23.075Z,16.64
2018-11-06T15:06:56.034Z,16.62
2018-11-06T15:09:31.974Z,16.59
2018-11-06T15:12:03.132Z,16.54
2018-11-06T15:14:34.175Z,16.52
2018-11-06T15:17:05.733Z,16.48
2018-11-06T15:19:39.904Z,16.44
2018-11-06T15:22:10.967Z,16.41
2018-11-06T15:24:42.101Z,16.35
2018-11-06T15:27:13.132Z,16.34
2018-11-06T15:29:44.666Z,16.27
2018-11-06T15:32:16.109Z,16.20
2018-11-06T15:34:51.233Z,16.08
2018-11-06T15:37:22.324Z,16.00
2018-11-06T15:39:53.405Z,15.92
2018-11-06T15:42:24.475Z,15.90
2018-11-06T15:44:55.613Z,15.90
2018-11-06T15:47:26.782Z,15.87
2018-11-06T15:49:58.877Z,15.73
2018-11-06T15:52:31.365Z,15.68
2018-11-06T15:55:06.885Z,15.67
2018-11-06T15:57:38.771Z,15.61
2018-11-06T16:00:31.791Z,15.47
2018-11-06T16:03:05.237Z,15.32
2018-11-06T16:05:36.376Z,15.19
2018-11-06T16:08:10.462Z,15.11
2018-11-06T16:10:41.321Z,15.02
2018-11-06T16:13:16.899Z,14.97
2018-11-06T16:15:47.933Z,14.90
2018-11-06T16:18:19.084Z,14.80
2018-11-06T16:20:50.221Z,14.76
2018-11-06T16:23:22.491Z,14.70
2018-11-06T16:26:02.151Z,14.58
2018-11-06T16:28:33.236Z,14.54
2018-11-06T16:31:07.277Z,14.57
2018-11-06T16:33:38.301Z,14.52
2018-11-06T16:36:09.458Z,14.45
2018-11-06T16:38:40.509Z,14.43
2018-11-06T16:41:12.654Z,14.39
2018-11-06T16:43:43.803Z,14.38
2018-11-06T16:46:14.887Z,14.39
2018-11-06T16:48:50.977Z,14.36
2018-11-06T16:51:22.940Z,14.35
2018-11-06T16:53:53.996Z,14.32
2018-11-06T16:56:25.071Z,14.20
2018-11-06T16:58:56.477Z,14.07
2018-11-06T17:01:27.869Z,13.94
2018-11-06T17:03:58.997Z,13.87
2018-11-06T17:06:36.028Z,13.82
2018-11-06T17:09:09.908Z,13.82
2018-11-06T17:11:41.129Z,13.73
2018-11-06T17:14:12.239Z,13.64
2018-11-06T17:16:43.305Z,13.64
2018-11-06T17:19:14.624Z,13.68
2018-11-06T17:21:46.015Z,13.71
2018-11-06T17:24:18.173Z,13.72
2018-11-06T17:26:49.189Z,13.72
2018-11-06T17:29:20.212Z,13.74
2018-11-06T17:31:57.737Z,13.76
2018-11-06T17:34:31.674Z,13.78
2018-11-06T17:37:06.451Z,13.76
2018-11-06T17:39:39.936Z,13.80
2018-11-06T17:42:14.715Z,13.81
2018-11-06T17:44:47.237Z,13.75
2018-11-06T17:47:19.440Z,13.68
2018-11-06T17:49:53.025Z,13.54
2018-11-06T17:52:25.833Z,13.47
2018-11-06T17:55:01.073Z,13.43
2018-11-06T17:57:32.034Z,13.47
2018-11-06T18:00:03.129Z,13.46
2018-11-06T18:02:34.228Z,13.38
2018-11-06T18:05:07.973Z,13.28
2018-11-06T18:07:39.630Z,13.19
2018-11-06T18:10:13.271Z,13.14
2018-11-06T18:12:44.599Z,13.02
2018-11-06T18:15:15.718Z,12.97
2018-11-06T18:17:47.327Z,12.92
2018-11-06T18:20:18.619Z,12.99
2018-11-06T18:22:49.699Z,13.00
2018-11-06T18:25:20.934Z,13.03
2018-11-06T18:27:51.898Z,13.05
2018-11-06T18:30:23.283Z,13.00
2018-11-06T18:32:54.391Z,13.00
2018-11-06T18:35:25.471Z,12.96
2018-11-06T18:37:56.527Z,12.89
2018-11-06T18:40:27.571Z,12.74
2018-11-06T18:42:58.649Z,12.77
2018-11-06T18:45:30.152Z,12.75
2018-11-06T18:48:01.216Z,12.66
2018-11-06T18:50:32.533Z,12.59
2018-11-06T18:53:03.580Z,12.47
2018-11-06T18:55:36.992Z,12.42
2018-11-06T18:58:08.337Z,12.36
2018-11-06T19:00:39.366Z,12.33
2018-11-06T19:03:10.560Z,12.26
2018-11-06T19:05:41.979Z,12.18
2018-11-06T19:08:13.421Z,12.14
2018-11-06T19:10:44.855Z,12.14
2018-11-06T19:13:15.881Z,12.13
2018-11-06T19:15:47.394Z,12.13
2018-11-06T19:18:19.385Z,12.14
2018-11-06T19:20:50.567Z,12.13
2018-11-06T19:23:24.202Z,12.15
2018-11-06T19:25:55.509Z,12.22
2018-11-06T19:28:29.077Z,12.27
2018-11-06T19:31:03.448Z,12.39
2018-11-06T19:33:34.559Z,12.54
2018-11-06T19:36:06.075Z,12.69
2018-11-06T19:38:37.174Z,12.80
2018-11-06T19:41:08.871Z,12.90
2018-11-06T19:43:42.262Z,13.01
2018-11-06T19:46:13.990Z,13.12
2018-11-06T19:48:45.329Z,13.24
2018-11-06T19:51:17.355Z,13.34
2018-11-06T19:53:48.577Z,13.42
2018-11-06T19:56:19.770Z,13.47
2018-11-06T19:58:51.191Z,13.58
2018-11-06T20:01:22.512Z,13.65
2018-11-06T20:03:53.672Z,13.66
2018-11-06T20:06:24.801Z,13.70
2018-11-06T20:09:03.067Z,13.77
2018-11-06T20:11:35.737Z,13.84
2018-11-06T20:14:06.736Z,13.89
2018-11-06T20:16:38.145Z,13.89
2018-11-06T20:19:09.645Z,13.93
2018-11-06T20:21:41.085Z,13.93
2018-11-06T20:24:12.809Z,13.88
2018-11-06T20:26:43.856Z,13.89
2018-11-06T20:29:15.709Z,13.87
2018-11-06T20:31:53.075Z,13.83
2018-11-06T20:34:24.089Z,13.84
2018-11-06T20:36:55.167Z,13.86
2018-11-06T20:39:26.409Z,13.84
2018-11-06T20:41:57.491Z,13.80
2018-11-06T20:44:31.020Z,13.81
2018-11-06T20:47:07.158Z,13.80
2018-11-06T20:49:38.288Z,13.83
2018-11-06T20:52:09.526Z,13.83
2018-11-06T20:55:02.620Z,13.79
2018-11-06T20:57:35.161Z,13.83
2018-11-06T21:00:10.685Z,13.79
2018-11-06T21:02:42.477Z,13.76
2018-11-06T21:05:22.579Z,13.80
2018-11-06T21:07:56.014Z,13.82
2018-11-06T21:10:30.089Z,13.84
2018-11-06T21:13:02.473Z,13.82
2018-11-06T21:15:33.908Z,13.76
2018-11-06T21:18:05.219Z,13.73
2018-11-06T21:20:36.098Z,13.66
2018-11-06T21:23:09.776Z,13.65
2018-11-06T21:25:43.408Z,13.56
2018-11-06T21:28:21.262Z,13.63
2018-11-06T21:30:54.163Z,13.65
2018-11-06T21:33:25.265Z,13.64
2018-11-06T21:35:56.710Z,13.61
2018-11-06T21:38:28.135Z,13.57
2018-11-06T21:40:59.221Z,13.55
2018-11-06T21:43:30.389Z,13.54
2018-11-06T21:46:01.820Z,13.51
2018-11-06T21:48:33.331Z,13.47
2018-11-06T21:51:04.915Z,13.47
2018-11-06T21:53:36.377Z,13.43
2018-11-06T21:56:07.564Z,13.44
2018-11-06T21:58:38.676Z,13.46
2018-11-06T22:01:10.257Z,13.46
2018-11-06T22:03:41.724Z,13.46
2018-11-06T22:06:15.379Z,13.43
2018-11-06T22:08:46.427Z,13.47
2018-11-06T22:11:20.088Z,13.46
2018-11-06T22:13:52.810Z,13.50
2018-11-06T22:16:24.582Z,13.47
2018-11-06T22:18:57.435Z,13.50
2018-11-06T22:21:28.992Z,13.54
2018-11-06T22:24:00.125Z,13.54
2018-11-06T22:26:31.549Z,13.55
2018-11-06T22:29:21.448Z,13.54
2018-11-06T22:31:56.475Z,13.59
2018-11-06T22:34:27.750Z,13.56
2018-11-06T22:37:00.393Z,13.54
2018-11-06T22:39:31.576Z,13.52
2018-11-06T22:42:02.680Z,13.51
2018-11-06T22:44:36.210Z,13.48
2018-11-06T22:47:08.136Z,13.45
2018-11-06T22:49:42.285Z,13.44
2018-11-06T22:52:13.461Z,13.42
2018-11-06T22:54:44.578Z,13.43
2018-11-06T22:57:15.963Z,13.43
2018-11-06T22:59:47.272Z,13.41
2018-11-06T23:02:18.752Z,13.40
2018-11-06T23:04:49.846Z,13.41
2018-11-06T23:07:38.700Z,13.43
2018-11-06T23:10:09.850Z,13.43
2018-11-06T23:12:41.136Z,13.39
2018-11-06T23:15:12.163Z,13.34
2018-11-06T23:17:43.643Z,13.37
2018-11-06T23:20:15.176Z,13.33
2018-11-06T23:22:46.237Z,13.32
2018-11-06T23:25:19.011Z,13.32
2018-11-06T23:27:50.118Z,13.29
2018-11-06T23:30:22.554Z,13.28
2018-11-06T23:32:52.248Z,13.26
2018-11-06T23:35:23.366Z,13.24
2018-11-06T23:37:54.404Z,13.27
2018-11-06T23:40:25.491Z,13.28
2018-11-06T23:42:56.924Z,13.25
2018-11-06T23:45:27.991Z,13.23
2018-11-06T23:47:59.096Z,13.17
2018-11-06T23:50:30.482Z,13.13
2018-11-06T23:53:01.571Z,13.11
2018-11-06T23:55:32.615Z,13.06
2018-11-06T23:58:06.069Z,12.99
